createdAt,value
2023-05-20T00:01:38.180Z,1.93
2023-05-20T00:04:06.522Z,2.20
2023-05-20T00:06:35.011Z,2.10
2023-05-20T00:09:03.420Z,2.13
2023-05-20T00:11:31.377Z,2.20
2023-05-20T00:13:59.158Z,2.20
2023-05-20T00:16:26.955Z,2.40
2023-05-20T00:18:56.840Z,2.30
2023-05-20T00:21:24.737Z,2.20
2023-05-20T00:23:52.807Z,2.40
2023-05-20T00:26:21.445Z,2.10
2023-05-20T00:28:49.401Z,2.27
2023-05-20T00:31:17.174Z,2.50
2023-05-20T00:33:44.974Z,2.17
2023-05-20T00:36:14.139Z,2.03
2023-05-20T00:38:41.915Z,2.30
2023-05-20T00:41:09.771Z,2.40
2023-05-20T00:43:37.615Z,2.20
2023-05-20T00:46:05.914Z,2.30
2023-05-20T00:48:41.160Z,2.27
2023-05-20T00:51:09.032Z,2.13
2023-05-20T00:53:38.470Z,2.30
2023-05-20T00:56:07.482Z,2.40
2023-05-20T00:58:36.769Z,2.23
2023-05-20T01:01:04.671Z,2.50
2023-05-20T01:03:32.749Z,2.60
2023-05-20T01:06:01.171Z,2.50
2023-05-20T01:08:29.686Z,2.13
2023-05-20T01:11:04.833Z,2.20
2023-05-20T01:13:38.073Z,2.23
2023-05-20T01:16:07.976Z,2.20
2023-05-20T01:18:36.929Z,2.43
2023-05-20T01:21:05.936Z,2.30
2023-05-20T01:23:39.062Z,2.13
2023-05-20T01:26:07.377Z,2.30
2023-05-20T01:28:35.978Z,2.33
2023-05-20T01:31:07.017Z,2.70
2023-05-20T01:33:37.155Z,2.43
2023-05-20T01:36:06.555Z,2.40
2023-05-20T01:38:37.868Z,2.40
2023-05-20T01:41:06.918Z,2.13
2023-05-20T01:43:35.733Z,2.63
2023-05-20T01:46:06.575Z,2.23
2023-05-20T01:48:34.592Z,2.67
2023-05-20T01:51:02.602Z,2.10
2023-05-20T01:53:30.786Z,2.60
2023-05-20T01:56:00.011Z,2.90
2023-05-20T01:58:27.795Z,2.77
2023-05-20T02:00:56.038Z,2.67
2023-05-20T02:03:23.873Z,2.53
2023-05-20T02:05:51.831Z,2.70
2023-05-20T02:08:19.606Z,2.23
2023-05-20T02:10:49.368Z,2.50
2023-05-20T02:13:18.541Z,2.70
2023-05-20T02:15:48.404Z,2.60
2023-05-20T02:18:18.793Z,2.87
2023-05-20T02:20:46.833Z,2.90
2023-05-20T02:23:14.678Z,2.77
2023-05-20T02:25:42.531Z,2.30
2023-05-20T02:28:10.666Z,2.63
2023-05-20T02:30:40.331Z,2.90
2023-05-20T02:33:09.947Z,2.73
2023-05-20T02:35:37.974Z,2.83
2023-05-20T02:38:05.735Z,2.83
2023-05-20T02:40:33.534Z,3.07
2023-05-20T02:43:02.021Z,2.90
2023-05-20T02:45:30.252Z,3.10
2023-05-20T02:47:59.598Z,2.53
2023-05-20T02:50:27.458Z,3.13
2023-05-20T02:52:55.942Z,2.80
2023-05-20T02:55:23.909Z,2.83
2023-05-20T02:57:52.451Z,2.80
2023-05-20T03:00:20.275Z,2.40
2023-05-20T03:02:48.101Z,2.73
2023-05-20T03:05:17.571Z,2.80
2023-05-20T03:07:46.423Z,3.00
2023-05-20T03:10:14.251Z,2.80
2023-05-20T03:12:42.077Z,2.77
2023-05-20T03:15:10.900Z,2.77
2023-05-20T03:17:38.771Z,2.53
2023-05-20T03:20:08.116Z,2.57
2023-05-20T03:22:37.257Z,2.90
2023-05-20T03:25:06.172Z,2.47
2023-05-20T03:27:34.432Z,2.80
2023-05-20T03:30:02.412Z,2.67
2023-05-20T03:32:30.309Z,2.90
2023-05-20T03:34:58.332Z,2.53
2023-05-20T03:37:26.164Z,2.70
2023-05-20T03:39:55.430Z,2.43
2023-05-20T03:42:23.125Z,2.30
2023-05-20T03:44:50.891Z,2.77
2023-05-20T03:47:18.667Z,2.67
2023-05-20T03:49:46.465Z,2.90
2023-05-20T03:52:14.218Z,2.77
2023-05-20T03:54:42.030Z,3.07
2023-05-20T03:57:11.524Z,2.90
2023-05-20T03:59:39.634Z,3.17
2023-05-20T04:02:07.516Z,2.90
2023-05-20T04:04:35.307Z,2.70
2023-05-20T04:07:03.282Z,2.43
2023-05-20T04:09:31.091Z,2.60
2023-05-20T04:11:58.903Z,2.50
2023-05-20T04:14:28.314Z,2.50
2023-05-20T04:16:56.450Z,2.87
2023-05-20T04:19:28.321Z,2.60
2023-05-20T04:21:56.355Z,2.40
2023-05-20T04:24:25.345Z,2.63
2023-05-20T04:26:53.228Z,2.93
2023-05-20T04:29:21.285Z,2.57
2023-05-20T04:31:50.550Z,2.90
2023-05-20T04:34:20.304Z,2.50
2023-05-20T04:36:49.083Z,2.30
2023-05-20T04:39:16.848Z,2.40
2023-05-20T04:41:44.612Z,2.57
2023-05-20T04:44:13.288Z,2.40
2023-05-20T04:46:41.632Z,2.40
2023-05-20T04:49:10.786Z,2.70
2023-05-20T04:51:39.387Z,2.87
2023-05-20T04:54:07.484Z,2.63
2023-05-20T04:56:36.302Z,2.47
2023-05-20T04:59:04.122Z,2.70
2023-05-20T05:01:31.966Z,2.87
2023-05-20T05:03:59.759Z,3.00
2023-05-20T05:06:28.950Z,2.80
2023-05-20T05:08:56.771Z,3.00
2023-05-20T05:11:24.583Z,2.70
2023-05-20T05:13:52.662Z,2.73
2023-05-20T05:16:20.520Z,2.70
2023-05-20T05:18:54.296Z,2.70
2023-05-20T05:21:22.097Z,2.67
2023-05-20T05:23:51.257Z,2.77
2023-05-20T05:26:19.012Z,2.67
2023-05-20T05:28:46.819Z,2.87
2023-05-20T05:31:14.594Z,3.17
2023-05-20T05:33:42.370Z,3.23
2023-05-20T05:36:10.222Z,3.87
2023-05-20T05:38:38.013Z,2.70
2023-05-20T05:41:07.383Z,3.00
2023-05-20T05:43:35.819Z,3.13
2023-05-20T05:46:05.141Z,3.13
2023-05-20T05:48:33.020Z,2.60
2023-05-20T05:51:00.814Z,2.90
2023-05-20T05:53:28.592Z,2.70
2023-05-20T05:55:56.422Z,3.07
2023-05-20T05:58:25.713Z,2.53
2023-05-20T06:00:54.884Z,2.83
2023-05-20T06:03:23.055Z,2.50
2023-05-20T06:05:51.232Z,2.63
2023-05-20T06:08:19.044Z,2.90
2023-05-20T06:10:49.872Z,2.87
2023-05-20T06:13:17.946Z,2.70
2023-05-20T06:15:47.140Z,2.90
2023-05-20T06:18:14.890Z,2.67
2023-05-20T06:20:42.609Z,2.40
2023-05-20T06:23:10.455Z,2.30
2023-05-20T06:25:38.255Z,2.60
2023-05-20T06:28:06.186Z,2.57
2023-05-20T06:30:34.006Z,2.77
2023-05-20T06:33:03.367Z,2.70
2023-05-20T06:35:31.170Z,2.57
2023-05-20T06:37:59.029Z,2.47
2023-05-20T06:40:27.378Z,2.23
2023-05-20T06:42:55.465Z,2.60
2023-05-20T06:45:23.272Z,2.40
2023-05-20T06:47:51.215Z,2.30
2023-05-20T06:50:20.652Z,2.40
2023-05-20T06:52:48.476Z,2.33
2023-05-20T06:55:16.296Z,2.20
2023-05-20T06:57:44.922Z,2.20
2023-05-20T07:00:14.088Z,2.50
2023-05-20T07:02:42.009Z,2.10
2023-05-20T07:05:10.714Z,2.07
2023-05-20T07:07:40.048Z,2.37
2023-05-20T07:10:09.457Z,2.13
2023-05-20T07:12:37.369Z,2.47
2023-05-20T07:15:06.049Z,2.10
2023-05-20T07:17:33.949Z,2.17
2023-05-20T07:20:01.737Z,2.40
2023-05-20T07:22:29.545Z,2.17
2023-05-20T07:24:59.561Z,2.47
2023-05-20T07:27:27.382Z,2.40
2023-05-20T07:29:55.417Z,2.10
2023-05-20T07:32:26.016Z,2.47
2023-05-20T07:34:55.250Z,2.13
2023-05-20T07:37:23.386Z,2.03
2023-05-20T07:39:51.143Z,2.40
2023-05-20T07:42:20.306Z,2.23
2023-05-20T07:44:48.123Z,2.30
2023-05-20T07:47:15.909Z,2.17
2023-05-20T07:49:44.524Z,2.40
2023-05-20T07:52:12.325Z,2.30
2023-05-20T07:54:40.158Z,2.20
2023-05-20T07:57:08.116Z,2.10
2023-05-20T07:59:37.425Z,2.30
2023-05-20T08:02:06.475Z,1.83
2023-05-20T08:04:35.266Z,2.57
2023-05-20T08:07:04.832Z,1.87
2023-05-20T08:09:35.680Z,1.90
2023-05-20T08:12:03.599Z,2.20
2023-05-20T08:14:31.404Z,2.03
2023-05-20T08:17:01.245Z,1.90
2023-05-20T08:19:29.067Z,1.83
2023-05-20T08:21:56.883Z,2.00
2023-05-20T08:24:24.729Z,2.00
2023-05-20T08:26:52.625Z,2.30
2023-05-20T08:29:20.584Z,1.90
2023-05-20T08:31:48.542Z,1.70
2023-05-20T08:34:17.978Z,1.93
2023-05-20T08:36:46.119Z,1.80
2023-05-20T08:39:13.976Z,1.70
2023-05-20T08:41:41.694Z,1.70
2023-05-20T08:44:11.806Z,1.93
2023-05-20T08:46:41.577Z,1.93
2023-05-20T08:49:09.468Z,2.23
2023-05-20T08:51:39.943Z,1.87
2023-05-20T08:54:09.801Z,1.90
2023-05-20T08:56:39.272Z,2.10
2023-05-20T08:59:07.447Z,1.80
2023-05-20T09:01:41.097Z,1.77
2023-05-20T09:04:09.804Z,1.40
2023-05-20T09:06:45.913Z,1.60
2023-05-20T09:09:13.972Z,1.60
2023-05-20T09:11:42.309Z,1.90
2023-05-20T09:14:10.578Z,1.73
2023-05-20T09:16:43.510Z,1.60
2023-05-20T09:19:13.787Z,1.80
2023-05-20T09:21:43.002Z,1.20
2023-05-20T09:24:12.179Z,1.70
2023-05-20T09:26:40.066Z,1.90
2023-05-20T09:29:08.823Z,1.50
2023-05-20T09:31:39.085Z,1.57
2023-05-20T09:34:08.052Z,1.50
2023-05-20T09:36:37.037Z,1.70
2023-05-20T09:39:05.740Z,1.90
2023-05-20T09:41:40.670Z,1.70
2023-05-20T09:44:09.104Z,1.70
2023-05-20T09:46:38.381Z,1.33
2023-05-20T09:49:07.879Z,1.50
2023-05-20T09:51:36.494Z,1.00
2023-05-20T09:54:08.429Z,1.37
2023-05-20T09:56:38.251Z,1.30
2023-05-20T09:59:06.774Z,1.20
2023-05-20T10:01:34.770Z,1.50
2023-05-20T10:04:05.191Z,1.10
2023-05-20T10:06:59.966Z,1.20
2023-05-20T10:09:45.055Z,1.53
2023-05-20T10:12:23.662Z,1.27
2023-05-20T10:15:01.077Z,1.70
2023-05-20T10:17:37.694Z,1.27
2023-05-20T10:20:09.214Z,1.23
2023-05-20T10:22:37.054Z,1.53
2023-05-20T10:25:07.842Z,1.50
2023-05-20T10:27:46.814Z,1.30
2023-05-20T10:30:18.865Z,1.50
2023-05-20T10:32:56.869Z,1.10
2023-05-20T10:35:27.774Z,0.97
2023-05-20T10:38:07.383Z,0.87
2023-05-20T10:40:35.625Z,1.20
2023-05-20T10:43:12.442Z,1.03
2023-05-20T10:45:50.868Z,1.13
2023-05-20T10:48:24.407Z,1.10
2023-05-20T10:50:55.346Z,1.20
2023-05-20T10:53:33.573Z,1.30
2023-05-20T10:56:02.694Z,1.20
2023-05-20T10:58:38.901Z,1.30
2023-05-20T11:01:06.965Z,1.27
2023-05-20T11:03:36.507Z,1.40
2023-05-20T11:06:12.591Z,1.43
2023-05-20T11:08:40.686Z,1.20
2023-05-20T11:11:09.116Z,1.30
2023-05-20T11:13:38.380Z,1.20
2023-05-20T11:16:06.883Z,1.33
2023-05-20T11:18:34.836Z,1.30
2023-05-20T11:21:03.530Z,1.37
2023-05-20T11:23:31.870Z,1.23
2023-05-20T11:25:59.932Z,1.00
2023-05-20T11:28:27.849Z,1.40
2023-05-20T11:30:56.974Z,1.20
2023-05-20T11:33:27.389Z,1.17
2023-05-20T11:35:55.388Z,1.70
2023-05-20T11:38:23.101Z,1.50
2023-05-20T11:40:54.331Z,1.90
2023-05-20T11:43:25.048Z,1.40
2023-05-20T11:45:56.814Z,1.50
2023-05-20T11:48:25.716Z,1.50
2023-05-20T11:50:55.114Z,1.40
2023-05-20T11:53:23.989Z,1.27
2023-05-20T11:55:53.954Z,1.60
2023-05-20T11:58:22.878Z,1.60
2023-05-20T12:00:55.038Z,1.63
2023-05-20T12:03:26.648Z,1.80
2023-05-20T12:05:54.922Z,1.50
2023-05-20T12:08:22.955Z,1.30
2023-05-20T12:10:50.835Z,1.57
2023-05-20T12:13:19.449Z,1.30
2023-05-20T12:15:47.458Z,1.43
2023-05-20T12:18:15.318Z,1.10
2023-05-20T12:20:44.431Z,1.60
2023-05-20T12:23:12.265Z,1.55
2023-05-20T12:25:40.051Z,1.37
2023-05-20T12:28:08.169Z,1.40
2023-05-20T12:30:36.172Z,1.60
2023-05-20T12:33:04.333Z,1.30
2023-05-20T12:35:38.598Z,1.30
2023-05-20T12:38:08.294Z,1.63
2023-05-20T12:40:37.421Z,1.30
2023-05-20T12:43:06.619Z,1.48
2023-05-20T12:45:34.580Z,1.47
2023-05-20T12:48:02.612Z,1.20
2023-05-20T12:50:30.378Z,1.20
2023-05-20T12:52:58.154Z,1.42
2023-05-20T12:55:27.430Z,1.40
2023-05-20T12:57:55.968Z,1.50
2023-05-20T13:00:23.795Z,1.30
2023-05-20T13:02:52.488Z,1.20
2023-05-20T13:05:20.498Z,1.35
2023-05-20T13:07:49.044Z,1.00
2023-05-20T13:10:18.026Z,1.27
2023-05-20T13:12:47.241Z,1.67
2023-05-20T13:15:15.535Z,1.20
2023-05-20T13:17:43.693Z,1.50
2023-05-20T13:20:12.482Z,1.10
2023-05-20T13:22:40.222Z,1.20
2023-05-20T13:25:09.095Z,1.42
2023-05-20T13:27:36.953Z,1.40
2023-05-20T13:30:07.336Z,1.40
2023-05-20T13:32:35.325Z,1.27
2023-05-20T13:35:03.566Z,1.42
2023-05-20T13:37:31.336Z,1.42
2023-05-20T13:39:59.085Z,1.40
2023-05-20T13:42:26.926Z,1.40
2023-05-20T13:44:54.638Z,1.17
2023-05-20T13:47:23.740Z,1.30
2023-05-20T13:49:51.680Z,1.50
2023-05-20T13:52:19.427Z,1.40
2023-05-20T13:54:48.687Z,1.25
2023-05-20T13:57:16.761Z,1.55
2023-05-20T13:59:44.573Z,1.10
2023-05-20T14:02:12.375Z,1.30
2023-05-20T14:04:44.935Z,1.33
2023-05-20T14:07:12.840Z,1.05
2023-05-20T14:09:40.738Z,1.10
2023-05-20T14:12:09.176Z,1.33
2023-05-20T14:14:37.008Z,1.50
2023-05-20T14:17:05.178Z,1.25
2023-05-20T14:19:33.037Z,1.15
2023-05-20T14:22:03.327Z,1.17
2023-05-20T14:24:31.216Z,0.80
2023-05-20T14:26:58.978Z,1.20
2023-05-20T14:29:26.684Z,1.20
2023-05-20T14:31:54.615Z,1.50
2023-05-20T14:34:25.600Z,1.38
2023-05-20T14:36:53.553Z,1.40
2023-05-20T14:39:22.796Z,1.20
2023-05-20T14:41:50.539Z,1.30
2023-05-20T14:44:18.319Z,1.25
2023-05-20T14:46:46.163Z,1.33
2023-05-20T14:49:13.957Z,1.15
2023-05-20T14:51:42.382Z,1.30
2023-05-20T14:54:10.460Z,1.20
2023-05-20T14:56:39.638Z,1.20
2023-05-20T14:59:07.421Z,1.20
2023-05-20T15:01:35.675Z,1.35
2023-05-20T15:04:04.631Z,1.25
2023-05-20T15:06:34.990Z,1.20
2023-05-20T15:09:02.814Z,1.25
2023-05-20T15:11:30.568Z,1.50
2023-05-20T15:13:59.997Z,1.20
2023-05-20T15:16:28.130Z,1.83
2023-05-20T15:18:55.968Z,1.30
2023-05-20T15:21:23.742Z,1.40
2023-05-20T15:23:51.537Z,1.23
2023-05-20T15:26:19.312Z,1.30
2023-05-20T15:28:47.069Z,1.30
2023-05-20T15:31:16.268Z,1.30
2023-05-20T15:33:44.180Z,1.50
2023-05-20T15:36:12.165Z,1.13
2023-05-20T15:38:39.900Z,1.05
2023-05-20T15:41:08.005Z,1.20
2023-05-20T15:43:35.883Z,1.25
2023-05-20T15:46:03.712Z,1.58
2023-05-20T15:48:34.730Z,1.35
2023-05-20T15:51:02.578Z,1.15
2023-05-20T15:53:30.303Z,1.20
2023-05-20T15:55:58.138Z,1.40
2023-05-20T15:58:25.997Z,1.30
2023-05-20T16:00:53.778Z,1.27
2023-05-20T16:03:21.695Z,1.20
2023-05-20T16:05:50.995Z,1.45
2023-05-20T16:08:20.806Z,1.23
2023-05-20T16:10:48.644Z,1.15
2023-05-20T16:13:16.654Z,1.30
2023-05-20T16:15:45.555Z,1.25
2023-05-20T16:18:13.377Z,1.25
2023-05-20T16:20:41.140Z,1.30
2023-05-20T16:23:10.380Z,1.55
2023-05-20T16:25:38.156Z,1.45
2023-05-20T16:28:05.883Z,1.33
2023-05-20T16:30:33.869Z,1.30
2023-05-20T16:33:01.883Z,2.00
2023-05-20T16:35:29.855Z,1.30
2023-05-20T16:37:57.665Z,1.30
2023-05-20T16:40:27.150Z,1.23
2023-05-20T16:42:54.912Z,1.55
2023-05-20T16:45:22.808Z,1.27
2023-05-20T16:47:50.790Z,1.40
2023-05-20T16:50:18.624Z,1.27
2023-05-20T16:52:46.520Z,1.40
2023-05-20T16:55:14.312Z,1.20
2023-05-20T16:57:43.840Z,1.48
2023-05-20T17:00:13.092Z,1.60
2023-05-20T17:02:40.961Z,1.40
2023-05-20T17:05:09.782Z,2.03
2023-05-20T17:07:38.291Z,1.98
2023-05-20T17:10:06.853Z,1.73
2023-05-20T17:12:34.577Z,1.73
2023-05-20T17:15:03.771Z,2.00
2023-05-20T17:17:31.521Z,1.70
2023-05-20T17:19:59.257Z,2.17
2023-05-20T17:22:27.037Z,1.95
2023-05-20T17:24:54.763Z,1.95
2023-05-20T17:27:22.584Z,2.20
2023-05-20T17:29:50.445Z,2.03
2023-05-20T17:32:19.588Z,1.80
2023-05-20T17:34:47.342Z,2.13
2023-05-20T17:37:15.055Z,1.80
2023-05-20T17:39:43.572Z,1.90
2023-05-20T17:42:11.404Z,2.13
2023-05-20T17:44:39.132Z,1.70
2023-05-20T17:47:06.891Z,2.10
2023-05-20T17:49:36.052Z,1.73
2023-05-20T17:52:03.818Z,1.67
2023-05-20T17:54:31.655Z,1.80
2023-05-20T17:56:59.418Z,1.65
2023-05-20T17:59:27.235Z,1.73
2023-05-20T18:01:55.088Z,2.47
2023-05-20T18:04:22.834Z,2.00
2023-05-20T18:06:51.975Z,2.17
2023-05-20T18:09:19.906Z,2.42
2023-05-20T18:11:47.620Z,1.92
2023-05-20T18:14:15.431Z,2.17
2023-05-20T18:16:46.330Z,2.20
2023-05-20T18:19:15.081Z,1.90
2023-05-20T18:21:42.931Z,2.10
2023-05-20T18:24:13.779Z,2.05
2023-05-20T18:26:41.640Z,2.20
2023-05-20T18:29:09.453Z,2.30
2023-05-20T18:31:37.272Z,2.30
2023-05-20T18:34:05.077Z,2.22
2023-05-20T18:36:33.574Z,2.10
2023-05-20T18:39:01.456Z,2.25
2023-05-20T18:41:43.129Z,2.10
2023-05-20T18:44:14.950Z,2.33
2023-05-20T18:46:42.846Z,2.20
2023-05-20T18:49:11.524Z,2.42
2023-05-20T18:51:39.643Z,2.45
2023-05-20T18:54:07.666Z,2.33
2023-05-20T18:56:37.019Z,2.00
2023-05-20T18:59:05.197Z,2.08
2023-05-20T19:01:33.920Z,2.35
2023-05-20T19:04:02.051Z,2.35
2023-05-20T19:06:29.992Z,2.15
2023-05-20T19:08:57.860Z,1.98
2023-05-20T19:11:25.751Z,2.33
2023-05-20T19:13:55.015Z,2.28
2023-05-20T19:16:22.894Z,2.38
2023-05-20T19:18:50.833Z,2.28
2023-05-20T19:21:18.713Z,2.55
2023-05-20T19:23:46.971Z,2.33
2023-05-20T19:26:15.211Z,2.83
2023-05-20T19:28:43.058Z,2.60
2023-05-20T19:31:12.270Z,2.53
2023-05-20T19:33:40.289Z,2.80
2023-05-20T19:36:08.128Z,2.37
2023-05-20T19:38:35.962Z,2.80
2023-05-20T19:41:03.718Z,2.53
2023-05-20T19:43:31.531Z,2.47
2023-05-20T19:45:59.704Z,2.30
2023-05-20T19:48:28.894Z,2.38
2023-05-20T19:50:56.945Z,2.03
2023-05-20T19:53:24.793Z,2.50
2023-05-20T19:55:52.540Z,2.15
2023-05-20T19:58:20.259Z,2.35
2023-05-20T20:00:48.037Z,2.47
2023-05-20T20:03:15.821Z,1.93
2023-05-20T20:05:45.170Z,2.17
2023-05-20T20:08:12.974Z,1.95
2023-05-20T20:10:40.788Z,2.33
2023-05-20T20:13:08.696Z,2.00
2023-05-20T20:15:37.947Z,2.30
2023-05-20T20:18:05.974Z,2.27
2023-05-20T20:20:39.605Z,2.50
2023-05-20T20:23:09.433Z,2.15
2023-05-20T20:25:38.809Z,2.00
2023-05-20T20:28:06.891Z,1.90
2023-05-20T20:30:35.074Z,2.27
2023-05-20T20:33:05.091Z,2.10
2023-05-20T20:35:33.117Z,2.40
2023-05-20T20:38:01.133Z,2.27
2023-05-20T20:40:30.301Z,2.30
2023-05-20T20:42:58.309Z,2.53
2023-05-20T20:45:26.147Z,2.08
2023-05-20T20:47:54.814Z,2.70
2023-05-20T20:50:22.871Z,2.40
2023-05-20T20:52:50.926Z,2.53
2023-05-20T20:55:18.694Z,2.17
2023-05-20T20:57:48.038Z,2.50
2023-05-20T21:00:18.940Z,2.77
2023-05-20T21:02:46.806Z,2.70
2023-05-20T21:05:16.884Z,2.70
2023-05-20T21:07:46.530Z,2.10
2023-05-20T21:10:14.393Z,2.10
2023-05-20T21:12:42.289Z,2.30
2023-05-20T21:15:14.873Z,2.30
2023-05-20T21:17:42.623Z,1.80
2023-05-20T21:20:11.501Z,2.43
2023-05-20T21:22:39.278Z,1.90
2023-05-20T21:25:08.162Z,2.37
2023-05-20T21:27:35.932Z,2.30
2023-05-20T21:30:03.758Z,2.30
2023-05-20T21:32:33.597Z,1.97
2023-05-20T21:35:01.428Z,2.27
2023-05-20T21:37:29.329Z,2.70
2023-05-20T21:39:57.369Z,2.70
2023-05-20T21:42:25.183Z,2.00
2023-05-20T21:44:52.971Z,2.40
2023-05-20T21:47:20.967Z,2.30
2023-05-20T21:49:50.225Z,2.03
2023-05-20T21:52:18.035Z,2.07
2023-05-20T21:54:46.170Z,2.17
2023-05-20T21:57:14.010Z,2.07
2023-05-20T21:59:41.753Z,2.07
2023-05-20T22:02:09.686Z,2.00
2023-05-20T22:04:37.484Z,1.70
2023-05-20T22:07:06.965Z,1.90
2023-05-20T22:09:34.747Z,2.77
2023-05-20T22:12:03.717Z,2.37
2023-05-20T22:14:31.489Z,2.40
2023-05-20T22:16:59.265Z,2.30
2023-05-20T22:19:28.010Z,2.60
2023-05-20T22:21:56.243Z,2.67
2023-05-20T22:24:25.389Z,2.13
2023-05-20T22:26:53.217Z,2.40
2023-05-20T22:29:21.892Z,2.00
2023-05-20T22:31:49.688Z,2.20
2023-05-20T22:34:17.438Z,2.33
2023-05-20T22:36:45.331Z,2.20
2023-05-20T22:39:13.380Z,2.00
2023-05-20T22:41:42.544Z,1.90
2023-05-20T22:44:10.579Z,1.90
2023-05-20T22:46:38.421Z,1.97
2023-05-20T22:49:06.274Z,2.10
2023-05-20T22:51:35.130Z,2.00
2023-05-20T22:54:03.290Z,2.20
2023-05-20T22:56:32.567Z,2.10
2023-05-20T22:59:01.778Z,2.40
2023-05-20T23:01:29.682Z,2.40
2023-05-20T23:03:57.610Z,2.13
2023-05-20T23:06:25.502Z,2.13
2023-05-20T23:08:53.531Z,2.10
2023-05-20T23:11:21.515Z,2.00
2023-05-20T23:13:49.585Z,2.10
2023-05-20T23:16:18.734Z,2.30
2023-05-20T23:18:47.565Z,2.17
2023-05-20T23:21:15.427Z,2.27
2023-05-20T23:23:43.183Z,3.00
2023-05-20T23:26:10.954Z,2.30
2023-05-20T23:28:38.840Z,2.30
2023-05-20T23:31:06.675Z,2.40
2023-05-20T23:33:36.039Z,2.30
2023-05-20T23:36:03.975Z,2.50
2023-05-20T23:38:32.034Z,2.23
2023-05-20T23:40:59.790Z,2.00
2023-05-20T23:43:27.704Z,2.40
2023-05-20T23:45:55.617Z,2.30
2023-05-20T23:48:26.472Z,2.17
2023-05-20T23:50:55.663Z,2.10
2023-05-20T23:53:23.420Z,2.30
2023-05-20T23:55:51.200Z,2.27
2023-05-20T23:58:19.080Z,2.20
